createdAt,value
2022-08-24T00:01:58.630Z,2.33
2022-08-24T00:04:26.908Z,2.17
2022-08-24T00:06:56.613Z,2.03
2022-08-24T00:09:24.679Z,2.45
2022-08-24T00:11:54.115Z,2.28
2022-08-24T00:14:22.172Z,2.45
2022-08-24T00:16:50.425Z,2.30
2022-08-24T00:19:18.990Z,2.10
2022-08-24T00:21:47.247Z,2.67
2022-08-24T00:24:15.717Z,2.42
2022-08-24T00:26:43.854Z,2.35
2022-08-24T00:29:15.461Z,2.35
2022-08-24T00:31:43.559Z,2.70
2022-08-24T00:34:13.859Z,2.58
2022-08-24T00:36:43.091Z,2.40
2022-08-24T00:39:12.191Z,2.35
2022-08-24T00:41:42.966Z,2.28
2022-08-24T00:44:11.772Z,2.13
2022-08-24T00:46:47.021Z,2.00
2022-08-24T00:49:23.746Z,2.40
2022-08-24T00:51:57.794Z,2.53
2022-08-24T00:54:30.478Z,2.60
2022-08-24T00:57:03.598Z,2.38
2022-08-24T00:59:37.753Z,2.10
2022-08-24T01:02:15.649Z,2.50
2022-08-24T01:04:49.166Z,2.20
2022-08-24T01:07:17.806Z,2.53
2022-08-24T01:09:46.393Z,2.40
2022-08-24T01:12:14.617Z,2.40
2022-08-24T01:14:42.690Z,2.80
2022-08-24T01:17:33.916Z,2.50
2022-08-24T01:20:07.273Z,2.80
2022-08-24T01:22:47.679Z,2.97
2022-08-24T01:25:17.602Z,2.65
2022-08-24T01:27:46.373Z,2.60
2022-08-24T01:30:17.395Z,2.50
2022-08-24T01:32:54.618Z,2.60
2022-08-24T01:35:23.202Z,3.05
2022-08-24T01:37:52.804Z,2.60
2022-08-24T01:40:23.233Z,2.53
2022-08-24T01:42:53.975Z,2.58
2022-08-24T01:45:23.013Z,2.95
2022-08-24T01:47:51.399Z,2.35
2022-08-24T01:50:19.433Z,2.70
2022-08-24T01:53:04.757Z,2.70
2022-08-24T01:55:35.836Z,2.95
2022-08-24T01:58:04.722Z,2.38
2022-08-24T02:00:33.398Z,2.95
2022-08-24T02:03:02.202Z,2.83
2022-08-24T02:05:31.495Z,2.60
2022-08-24T02:08:00.336Z,2.63
2022-08-24T02:10:29.409Z,2.80
2022-08-24T02:13:00.116Z,2.83
2022-08-24T02:15:31.865Z,2.75
2022-08-24T02:18:01.121Z,2.75
2022-08-24T02:20:30.244Z,3.25
2022-08-24T02:22:58.780Z,3.00
2022-08-24T02:25:30.506Z,2.58
2022-08-24T02:28:01.771Z,2.70
2022-08-24T02:30:30.978Z,2.95
2022-08-24T02:32:59.725Z,2.80
2022-08-24T02:35:29.310Z,2.55
2022-08-24T02:37:58.060Z,2.85
2022-08-24T02:40:28.165Z,2.60
2022-08-24T02:42:57.427Z,2.58
2022-08-24T02:45:27.428Z,2.67
2022-08-24T02:47:55.858Z,3.25
2022-08-24T02:50:25.234Z,2.95
2022-08-24T02:52:54.292Z,3.03
2022-08-24T02:55:23.045Z,3.10
2022-08-24T02:57:53.261Z,3.17
2022-08-24T03:00:23.834Z,2.80
2022-08-24T03:02:53.470Z,3.10
2022-08-24T03:05:23.433Z,2.85
2022-08-24T03:07:52.393Z,2.75
2022-08-24T03:10:21.583Z,2.90
2022-08-24T03:12:49.736Z,3.20
2022-08-24T03:15:22.557Z,3.28
2022-08-24T03:17:50.845Z,3.55
2022-08-24T03:20:22.968Z,2.95
2022-08-24T03:22:51.813Z,3.30
2022-08-24T03:25:21.636Z,3.08
2022-08-24T03:27:50.302Z,3.13
2022-08-24T03:30:19.168Z,2.83
2022-08-24T03:32:49.537Z,3.35
2022-08-24T03:35:21.866Z,3.17
2022-08-24T03:37:50.889Z,3.30
2022-08-24T03:40:22.328Z,3.20
2022-08-24T03:42:53.722Z,3.30
2022-08-24T03:45:22.869Z,2.95
2022-08-24T03:47:51.173Z,3.03
2022-08-24T03:50:21.413Z,3.13
2022-08-24T03:52:50.408Z,2.90
2022-08-24T03:55:19.527Z,3.28
2022-08-24T03:57:48.501Z,2.90
2022-08-24T04:00:18.083Z,3.13
2022-08-24T04:02:55.165Z,3.40
2022-08-24T04:05:27.071Z,3.35
2022-08-24T04:07:55.173Z,3.08
2022-08-24T04:10:23.233Z,3.53
2022-08-24T04:12:51.290Z,3.88
2022-08-24T04:15:24.478Z,3.50
2022-08-24T04:17:52.734Z,3.45
2022-08-24T04:20:21.294Z,3.35
2022-08-24T04:22:53.712Z,3.25
2022-08-24T04:25:25.130Z,3.38
2022-08-24T04:27:53.534Z,3.47
2022-08-24T04:30:24.708Z,3.60
2022-08-24T04:33:15.110Z,3.28
2022-08-24T04:38:34.668Z,3.50
2022-08-24T04:41:41.893Z,3.17
2022-08-24T04:44:12.008Z,3.50
2022-08-24T04:46:40.930Z,3.05
2022-08-24T04:49:10.382Z,3.50
2022-08-24T04:51:39.804Z,3.60
2022-08-24T04:54:10.775Z,4.00
2022-08-24T04:56:40.054Z,3.65
2022-08-24T04:59:08.500Z,3.97
2022-08-24T05:01:37.237Z,3.80
2022-08-24T05:04:07.519Z,4.10
2022-08-24T05:06:36.403Z,3.72
2022-08-24T05:09:06.884Z,3.47
2022-08-24T05:11:40.403Z,4.18
2022-08-24T05:14:11.257Z,4.22
2022-08-24T05:16:52.424Z,3.88
2022-08-24T05:19:21.866Z,3.38
2022-08-24T05:21:50.284Z,3.65
2022-08-24T05:24:19.671Z,3.92
2022-08-24T05:26:50.079Z,4.00
2022-08-24T05:29:19.153Z,3.80
2022-08-24T05:31:52.149Z,3.67
2022-08-24T05:34:20.500Z,3.97
2022-08-24T05:36:50.330Z,4.00
2022-08-24T05:39:38.088Z,3.95
2022-08-24T05:42:11.243Z,3.67
2022-08-24T05:44:46.278Z,3.67
2022-08-24T05:47:18.262Z,4.18
2022-08-24T05:49:48.109Z,3.55
2022-08-24T05:52:17.518Z,3.50
2022-08-24T05:54:53.610Z,4.05
2022-08-24T05:57:24.656Z,3.65
2022-08-24T06:00:09.005Z,3.70
2022-08-24T06:02:44.619Z,3.55
2022-08-24T06:05:14.201Z,3.90
2022-08-24T06:07:43.661Z,4.13
2022-08-24T06:10:35.322Z,3.40
2022-08-24T06:13:05.444Z,3.80
2022-08-24T06:15:34.542Z,3.80
2022-08-24T06:18:03.307Z,3.35
2022-08-24T06:20:31.824Z,3.60
2022-08-24T06:23:00.472Z,3.95
2022-08-24T06:25:57.401Z,3.35
2022-08-24T06:28:27.648Z,4.20
2022-08-24T06:31:03.708Z,4.07
2022-08-24T06:33:32.196Z,4.38
2022-08-24T06:36:00.794Z,4.35
2022-08-24T06:38:30.774Z,4.05
2022-08-24T06:41:00.219Z,4.03
2022-08-24T06:43:30.165Z,3.97
2022-08-24T06:46:02.995Z,4.30
2022-08-24T06:48:36.262Z,4.22
2022-08-24T06:51:10.585Z,4.45
2022-08-24T06:53:40.771Z,4.80
2022-08-24T06:56:10.197Z,4.82
2022-08-24T06:58:40.422Z,5.22
2022-08-24T07:01:16.105Z,5.45
2022-08-24T07:03:45.281Z,5.47
2022-08-24T07:06:28.009Z,5.05
2022-08-24T07:09:00.485Z,5.10
2022-08-24T07:11:29.195Z,5.70
2022-08-24T07:13:59.114Z,5.97
2022-08-24T07:16:27.930Z,5.90
2022-08-24T07:19:02.454Z,5.57
2022-08-24T07:21:32.478Z,5.65
2022-08-24T07:24:02.437Z,6.03
2022-08-24T07:26:34.845Z,6.43
2022-08-24T07:29:13.601Z,6.50
2022-08-24T07:31:50.252Z,7.35
2022-08-24T07:34:29.706Z,7.95
2022-08-24T07:37:00.027Z,7.45
2022-08-24T07:39:28.589Z,7.38
2022-08-24T07:42:17.213Z,8.35
2022-08-24T07:44:48.566Z,8.82
2022-08-24T07:50:10.696Z,8.20
2022-08-24T07:52:39.146Z,7.85
2022-08-24T07:55:09.183Z,8.15
2022-08-24T07:57:38.566Z,9.25
2022-08-24T08:00:12.721Z,9.23
2022-08-24T08:02:47.307Z,7.15
2022-08-24T08:05:20.558Z,7.50
2022-08-24T08:07:52.391Z,8.40
2022-08-24T08:10:23.454Z,11.38
2022-08-24T08:12:53.556Z,8.63
2022-08-24T08:15:23.542Z,8.10
2022-08-24T08:17:58.806Z,8.68
2022-08-24T08:20:27.299Z,9.98
2022-08-24T08:23:13.986Z,9.98
2022-08-24T08:26:03.339Z,9.57
2022-08-24T08:28:48.729Z,9.80
2022-08-24T08:31:19.011Z,9.38
2022-08-24T08:33:48.498Z,9.55
2022-08-24T08:36:17.306Z,9.27
2022-08-24T08:38:50.858Z,10.57
2022-08-24T08:41:56.418Z,9.80
2022-08-24T08:44:38.681Z,9.32
2022-08-24T08:47:34.102Z,9.68
2022-08-24T08:50:17.259Z,8.25
2022-08-24T08:53:18.758Z,8.85
2022-08-24T08:55:59.229Z,8.38
2022-08-24T08:58:57.100Z,8.77
2022-08-24T09:01:46.635Z,8.35
2022-08-24T09:04:49.286Z,8.27
2022-08-24T09:07:28.348Z,8.13
2022-08-24T09:10:51.984Z,8.00
2022-08-24T09:13:35.671Z,7.68
2022-08-24T09:16:19.700Z,7.90
2022-08-24T09:19:14.945Z,7.80
2022-08-24T09:21:59.415Z,8.48
2022-08-24T09:24:51.033Z,7.20
2022-08-24T09:27:51.695Z,7.90
2022-08-24T09:30:24.703Z,7.65
2022-08-24T09:33:01.194Z,6.93
2022-08-24T09:35:36.709Z,6.70
2022-08-24T09:38:19.001Z,7.43
2022-08-24T09:41:11.227Z,6.70
2022-08-24T09:44:12.850Z,6.05
2022-08-24T09:47:12.002Z,5.10
2022-08-24T09:49:58.761Z,6.70
2022-08-24T09:53:09.155Z,5.40
2022-08-24T09:56:00.121Z,6.85
2022-08-24T09:58:44.969Z,5.40
2022-08-24T10:01:21.530Z,5.10
2022-08-24T10:04:05.988Z,5.82
2022-08-24T10:06:43.823Z,9.98
2022-08-24T10:09:42.811Z,5.85
2022-08-24T10:12:22.773Z,5.95
2022-08-24T10:14:58.932Z,5.03
2022-08-24T10:17:37.077Z,5.63
2022-08-24T10:20:17.775Z,5.55
2022-08-24T10:23:11.580Z,5.25
2022-08-24T10:25:47.866Z,5.10
2022-08-24T10:28:45.789Z,5.55
2022-08-24T10:31:19.719Z,6.13
2022-08-24T10:34:00.392Z,5.22
2022-08-24T10:36:46.027Z,6.70
2022-08-24T10:39:42.880Z,6.15
2022-08-24T10:43:06.990Z,5.50
2022-08-24T10:46:29.259Z,5.88
2022-08-24T10:49:43.646Z,6.18
2022-08-24T10:52:49.085Z,4.53
2022-08-24T10:55:22.473Z,5.43
2022-08-24T10:58:19.991Z,5.55
2022-08-24T11:00:49.338Z,4.70
2022-08-24T11:03:27.932Z,5.50
2022-08-24T11:05:58.673Z,5.03
2022-08-24T11:08:29.285Z,5.53
2022-08-24T11:11:07.940Z,5.88
2022-08-24T11:13:38.034Z,5.38
2022-08-24T11:16:07.641Z,5.30
2022-08-24T11:18:51.180Z,5.43
2022-08-24T11:21:37.446Z,5.68
2022-08-24T11:24:08.554Z,5.10
2022-08-24T11:26:53.537Z,5.65
2022-08-24T11:29:23.255Z,5.43
2022-08-24T11:31:53.733Z,5.70
2022-08-24T11:34:34.682Z,5.47
2022-08-24T11:37:03.553Z,5.57
2022-08-24T11:39:35.772Z,6.03
2022-08-24T11:42:15.701Z,5.18
2022-08-24T11:44:49.922Z,5.75
2022-08-24T11:47:39.393Z,5.80
2022-08-24T11:50:20.929Z,5.50
2022-08-24T11:52:58.571Z,4.70
2022-08-24T11:55:46.867Z,4.60
2022-08-24T11:58:33.670Z,4.80
2022-08-24T12:01:09.567Z,4.50
2022-08-24T12:03:58.350Z,4.68
2022-08-24T12:06:41.546Z,4.55
2022-08-24T12:09:28.394Z,5.00
2022-08-24T12:12:03.807Z,4.03
2022-08-24T12:14:38.787Z,4.20
2022-08-24T12:17:16.886Z,3.70
2022-08-24T12:19:50.331Z,3.83
2022-08-24T12:22:22.071Z,3.97
2022-08-24T12:24:52.593Z,3.85
2022-08-24T12:27:25.606Z,3.65
2022-08-24T12:30:01.418Z,3.58
2022-08-24T12:32:39.565Z,3.72
2022-08-24T12:35:12.577Z,3.42
2022-08-24T12:37:45.228Z,3.80
2022-08-24T12:40:24.422Z,3.90
2022-08-24T12:42:56.625Z,3.55
2022-08-24T12:45:26.035Z,3.40
2022-08-24T12:48:03.765Z,3.60
2022-08-24T12:50:41.109Z,3.53
2022-08-24T12:53:39.263Z,3.90
2022-08-24T12:56:30.170Z,4.00
2022-08-24T12:59:16.031Z,3.83
2022-08-24T13:01:48.479Z,4.50
2022-08-24T13:04:31.373Z,4.20
2022-08-24T13:07:03.614Z,4.03
2022-08-24T13:09:36.942Z,3.95
2022-08-24T13:12:42.849Z,3.90
2022-08-24T13:15:48.371Z,3.70
2022-08-24T13:18:50.719Z,4.03
2022-08-24T13:21:42.367Z,4.10
2022-08-24T13:24:52.830Z,3.97
2022-08-24T13:28:01.434Z,4.18
2022-08-24T13:30:36.619Z,3.50
2022-08-24T13:33:09.637Z,3.90
2022-08-24T13:35:58.299Z,3.85
2022-08-24T13:38:55.945Z,4.32
2022-08-24T13:41:55.297Z,3.90
2022-08-24T13:44:36.366Z,3.50
2022-08-24T13:47:16.885Z,4.05
2022-08-24T13:50:02.249Z,4.75
2022-08-24T13:52:44.852Z,3.63
2022-08-24T13:55:45.668Z,4.00
2022-08-24T13:58:27.017Z,4.10
2022-08-24T14:01:01.933Z,4.03
2022-08-24T14:03:53.435Z,3.90
2022-08-24T14:06:39.259Z,4.05
2022-08-24T14:09:26.859Z,4.10
2022-08-24T14:12:23.356Z,3.67
2022-08-24T14:15:08.467Z,4.00
2022-08-24T14:17:55.357Z,3.55
2022-08-24T14:20:51.629Z,3.90
2022-08-24T14:23:36.531Z,3.70
2022-08-24T14:26:42.469Z,3.53
2022-08-24T14:29:40.673Z,3.90
2022-08-24T14:32:36.179Z,3.17
2022-08-24T14:35:26.149Z,3.60
2022-08-24T14:38:16.862Z,3.15
2022-08-24T14:41:03.093Z,3.22
2022-08-24T14:43:46.046Z,3.13
2022-08-24T14:46:24.167Z,3.67
2022-08-24T14:49:09.220Z,3.35
2022-08-24T14:51:56.710Z,3.67
2022-08-24T14:54:35.894Z,3.55
2022-08-24T14:57:28.814Z,3.40
2022-08-24T15:00:06.907Z,3.42
2022-08-24T15:03:17.006Z,3.45
2022-08-24T15:06:09.535Z,3.45
2022-08-24T15:08:43.957Z,3.90
2022-08-24T15:11:14.749Z,3.40
2022-08-24T15:13:48.508Z,3.55
2022-08-24T15:16:22.463Z,3.50
2022-08-24T15:18:58.744Z,3.35
2022-08-24T15:21:37.359Z,3.33
2022-08-24T15:24:16.723Z,3.25
2022-08-24T15:27:02.251Z,3.40
2022-08-24T15:29:33.450Z,3.55
2022-08-24T15:32:07.273Z,3.55
2022-08-24T15:34:40.232Z,3.40
2022-08-24T15:37:08.739Z,3.58
2022-08-24T15:39:38.613Z,3.47
2022-08-24T15:42:11.703Z,3.78
2022-08-24T15:44:43.119Z,3.35
2022-08-24T15:47:22.590Z,3.30
2022-08-24T15:49:55.186Z,3.50
2022-08-24T15:52:50.181Z,3.47
2022-08-24T15:55:36.602Z,3.47
2022-08-24T15:58:36.502Z,3.55
2022-08-24T16:01:38.657Z,3.30
2022-08-24T16:04:09.617Z,3.47
2022-08-24T16:06:41.795Z,3.45
2022-08-24T16:09:15.052Z,3.38
2022-08-24T16:11:50.306Z,3.20
2022-08-24T16:14:28.546Z,3.53
2022-08-24T16:16:59.403Z,3.40
2022-08-24T16:19:30.514Z,3.65
2022-08-24T16:22:01.712Z,3.83
2022-08-24T16:24:33.519Z,3.40
2022-08-24T16:27:07.379Z,3.80
2022-08-24T16:29:47.990Z,3.40
2022-08-24T16:32:21.598Z,3.75
2022-08-24T16:34:57.752Z,3.05
2022-08-24T16:37:26.302Z,3.50
2022-08-24T16:39:54.652Z,3.60
2022-08-24T16:42:27.305Z,3.40
2022-08-24T16:44:56.533Z,3.60
2022-08-24T16:47:25.385Z,3.75
2022-08-24T16:49:53.437Z,3.22
2022-08-24T16:52:21.979Z,3.03
2022-08-24T16:54:50.566Z,3.60
2022-08-24T16:57:22.850Z,3.22
2022-08-24T16:59:53.517Z,3.35
2022-08-24T17:02:22.953Z,3.63
2022-08-24T17:04:51.355Z,3.40
2022-08-24T17:07:24.529Z,3.63
2022-08-24T17:09:53.262Z,3.60
2022-08-24T17:12:21.730Z,3.75
2022-08-24T17:14:49.878Z,3.72
2022-08-24T17:17:21.650Z,3.28
2022-08-24T17:19:51.054Z,3.42
2022-08-24T17:22:19.102Z,3.60
2022-08-24T17:24:47.445Z,3.22
2022-08-24T17:27:16.499Z,3.20
2022-08-24T17:29:45.869Z,3.28
2022-08-24T17:32:14.930Z,3.50
2022-08-24T17:34:44.463Z,3.58
2022-08-24T17:37:13.046Z,3.35
2022-08-24T17:39:41.189Z,3.85
2022-08-24T17:42:27.900Z,3.50
2022-08-24T17:44:57.653Z,3.58
2022-08-24T17:47:25.927Z,3.70
2022-08-24T17:49:55.418Z,3.28
2022-08-24T17:52:23.578Z,3.42
2022-08-24T17:54:51.565Z,3.55
2022-08-24T17:57:28.803Z,3.20
2022-08-24T17:59:56.839Z,3.70
2022-08-24T18:02:24.918Z,3.65
2022-08-24T18:04:53.008Z,3.55
2022-08-24T18:07:36.182Z,3.55
2022-08-24T18:10:12.157Z,3.90
2022-08-24T18:12:40.759Z,3.70
2022-08-24T18:15:09.671Z,4.10
2022-08-24T18:17:40.718Z,3.80
2022-08-24T18:20:11.130Z,4.03
2022-08-24T18:22:44.556Z,3.67
2022-08-24T18:25:13.641Z,4.22
2022-08-24T18:27:43.232Z,4.07
2022-08-24T18:30:17.194Z,3.90
2022-08-24T18:32:46.372Z,4.13
2022-08-24T18:35:14.619Z,4.40
2022-08-24T18:37:44.231Z,4.35
2022-08-24T18:40:21.102Z,4.78
2022-08-24T18:42:50.909Z,4.82
2022-08-24T18:45:19.610Z,5.10
2022-08-24T18:47:53.531Z,4.53
2022-08-24T18:50:22.178Z,4.97
2022-08-24T18:52:51.729Z,4.97
2022-08-24T18:55:19.957Z,4.55
2022-08-24T18:57:48.323Z,4.95
2022-08-24T19:00:17.028Z,5.07
2022-08-24T19:02:45.507Z,4.75
2022-08-24T19:05:17.636Z,4.50
2022-08-24T19:07:47.274Z,4.70
2022-08-24T19:10:19.458Z,4.93
2022-08-24T19:12:51.630Z,4.53
2022-08-24T19:15:32.634Z,4.85
2022-08-24T19:18:07.645Z,4.80
2022-08-24T19:20:36.284Z,4.80
2022-08-24T19:23:09.325Z,5.05
2022-08-24T19:25:40.594Z,4.95
2022-08-24T19:28:08.673Z,4.72
2022-08-24T19:30:37.442Z,4.85
2022-08-24T19:33:11.781Z,4.57
2022-08-24T19:35:42.254Z,4.30
2022-08-24T19:38:10.272Z,4.80
2022-08-24T19:40:39.949Z,5.10
2022-08-24T19:43:16.123Z,4.60
2022-08-24T19:46:01.517Z,5.20
2022-08-24T19:48:30.214Z,4.70
2022-08-24T19:50:59.929Z,4.88
2022-08-24T19:53:31.375Z,4.85
2022-08-24T19:56:00.936Z,4.88
2022-08-24T19:58:32.114Z,4.53
2022-08-24T20:01:05.168Z,4.78
2022-08-24T20:03:33.304Z,4.78
2022-08-24T20:06:01.310Z,4.80
2022-08-24T20:08:29.386Z,4.60
2022-08-24T20:11:00.450Z,5.10
2022-08-24T20:13:29.985Z,4.97
2022-08-24T20:15:58.850Z,5.00
2022-08-24T20:18:31.201Z,5.30
2022-08-24T20:20:59.771Z,4.93
2022-08-24T20:23:28.085Z,4.97
2022-08-24T20:25:56.613Z,4.78
2022-08-24T20:28:30.132Z,4.78
2022-08-24T20:31:01.467Z,4.85
2022-08-24T20:33:29.543Z,4.88
2022-08-24T20:35:57.932Z,4.85
2022-08-24T20:38:26.854Z,5.20
2022-08-24T20:41:00.765Z,5.22
2022-08-24T20:43:28.954Z,4.93
2022-08-24T20:45:57.610Z,5.15
2022-08-24T20:48:30.517Z,5.60
2022-08-24T20:50:58.833Z,5.13
2022-08-24T20:53:27.418Z,4.85
2022-08-24T20:55:57.628Z,4.95
2022-08-24T20:58:26.571Z,4.80
2022-08-24T21:00:54.768Z,5.00
2022-08-24T21:03:23.016Z,4.72
2022-08-24T21:05:52.624Z,4.90
2022-08-24T21:08:20.994Z,4.85
2022-08-24T21:10:49.249Z,4.57
2022-08-24T21:13:17.334Z,4.65
2022-08-24T21:15:46.080Z,4.72
2022-08-24T21:18:14.254Z,4.50
2022-08-24T21:20:46.092Z,4.68
2022-08-24T21:23:32.649Z,4.30
2022-08-24T21:26:02.009Z,4.00
2022-08-24T21:28:30.523Z,3.80
2022-08-24T21:31:02.475Z,4.40
2022-08-24T21:33:50.893Z,4.03
2022-08-24T21:36:20.575Z,3.92
2022-08-24T21:38:51.995Z,4.50
2022-08-24T21:41:21.696Z,4.13
2022-08-24T21:43:49.803Z,3.50
2022-08-24T21:46:18.329Z,4.00
2022-08-24T21:48:46.842Z,3.67
2022-08-24T21:51:14.880Z,3.88
2022-08-24T21:53:43.029Z,3.75
2022-08-24T21:56:12.481Z,3.88
2022-08-24T21:58:40.551Z,3.58
2022-08-24T22:01:08.570Z,3.60
2022-08-24T22:03:40.140Z,3.80
2022-08-24T22:06:09.613Z,3.75
2022-08-24T22:08:37.867Z,4.20
2022-08-24T22:11:06.617Z,3.75
2022-08-24T22:13:36.714Z,3.80
2022-08-24T22:16:05.700Z,3.75
2022-08-24T22:18:34.234Z,3.72
2022-08-24T22:21:06.709Z,4.13
2022-08-24T22:23:34.949Z,3.80
2022-08-24T22:26:03.469Z,3.67
2022-08-24T22:28:31.481Z,4.13
2022-08-24T22:31:01.097Z,3.97
2022-08-24T22:33:29.851Z,3.78
2022-08-24T22:35:57.869Z,3.78
2022-08-24T22:38:25.902Z,3.63
2022-08-24T22:40:57.022Z,3.75
2022-08-24T22:43:45.023Z,4.07
2022-08-24T22:46:14.649Z,4.10
2022-08-24T22:48:42.919Z,3.65
2022-08-24T22:51:11.585Z,3.60
2022-08-24T22:53:40.747Z,3.95
2022-08-24T22:56:16.104Z,4.15
2022-08-24T22:58:44.179Z,3.75
2022-08-24T23:01:21.148Z,3.53
2022-08-24T23:03:50.311Z,4.20
2022-08-24T23:06:18.745Z,3.63
2022-08-24T23:08:46.904Z,3.50
2022-08-24T23:11:15.674Z,4.20
2022-08-24T23:13:44.153Z,3.47
2022-08-24T23:16:14.224Z,3.30
2022-08-24T23:19:01.231Z,3.53
2022-08-24T23:21:29.538Z,3.50
2022-08-24T23:23:57.665Z,3.53
2022-08-24T23:26:26.017Z,3.50
2022-08-24T23:28:55.234Z,3.58
2022-08-24T23:31:24.623Z,3.67
2022-08-24T23:33:54.263Z,4.22
2022-08-24T23:36:25.072Z,3.67
2022-08-24T23:38:55.240Z,3.70
2022-08-24T23:41:25.957Z,3.42
2022-08-24T23:43:54.776Z,3.53
2022-08-24T23:46:24.029Z,4.05
2022-08-24T23:48:55.212Z,4.10
2022-08-24T23:51:24.942Z,3.67
2022-08-24T23:53:53.173Z,3.10
2022-08-24T23:56:25.293Z,3.80
2022-08-24T23:58:54.142Z,4.00
